Flight Track Log - Related Links

Times and Time Zones

All times are in EDT time to prevent confusion due to time zone crossing. See the AWE1092 flight status page for this flight to view local times or setup timezone preferences in your user account.

Time Position Orientation Groundspeed Altitude Reporting Facility
EDT Latitude Longitude Course Direction KTS MPH feet Rate Location/Type
Tue 07:05:53 AM 42.9500 -71.4167 273° West 164 189 900  Level KA90
Tue 07:07:11 AM 43.0167 -71.3833 20° North 235 270 2,900 1,863 Climbing KA90
Tue 07:08:00 AM 42.9401 -71.8403 283° West  Level FlightAware Approximate
Tue 07:09:00 AM 42.9500 -71.9754 270° West  Level FlightAware Approximate
Tue 07:09:03 AM 43.1006 -71.4478 331° Northwest 261 300 6,800  Level Boston Center
Tue 07:10:00 AM 42.9501 -72.1120 270° West  Level FlightAware Approximate
Tue 07:10:01 AM 43.1242 -71.5469 288° West 256 295 10,300  Level Boston Center
Tue 07:11:00 AM 42.9514 -72.2486 273° West  Level FlightAware Approximate
Tue 07:11:03 AM 43.1019 -71.6383 252° West 263 303 11,600  Level Boston Center
Tue 07:12:01 AM 43.0694 -71.7636 250° West 315 362 14,700 2,622 Climbing Boston Center
Tue 07:13:02 AM 43.0431 -71.8747 252° West 338 389 16,800 2,115 Climbing Boston Center
Tue 07:14:03 AM 43.0061 -72.0086 249° West 343 395 19,000 1,587 Climbing Boston Center
Tue 07:15:03 AM 42.9731 -72.1364 251° West 353 406 20,000 496 Climbing Boston Center
Tue 07:16:04 AM 42.9381 -72.2642 250° West 358 412 20,000  Level Boston Center
Tue 07:17:01 AM 42.9111 -72.3947 254° West 363 418 20,000  Level Boston Center
Tue 07:18:03 AM 42.8756 -72.5222 249° West 368 423 20,000  Level Boston Center
Tue 07:19:01 AM 42.8378 -72.6383 246° West 368 423 20,000  Level Boston Center
Tue 07:20:02 AM 42.8000 -72.7656 248° West 369 425 20,000  Level Boston Center
Tue 07:21:03 AM 42.7664 -72.8953 251° West 369 425 20,000  Level Boston Center
Tue 07:22:01 AM 42.7303 -73.0422 252° West 378 435 20,000  Level Boston Center
Tue 07:23:01 AM 42.6919 -73.1717 248° West 385 443 20,000  Level Boston Center
Tue 07:24:02 AM 42.6575 -73.3039 251° West 380 437 20,000  Level Boston Center
Tue 07:25:03 AM 42.6275 -73.4081 249° West 375 432 20,000  Level Boston Center
Tue 07:26:01 AM 42.5867 -73.5483 248° West 370 426 20,000  Level Boston Center
Tue 07:27:03 AM 42.5519 -73.6775 250° West 370 426 20,000  Level Boston Center
Tue 07:28:02 AM 42.5153 -73.8033 248° West 370 426 20,000  Level Boston Center
Tue 07:29:13 AM 42.4803 -73.9264 249° West 365 420 20,000  Level Boston Center
Tue 07:30:16 AM 42.4386 -74.0747 249° West 365 420 20,000  Level Boston Center
Tue 07:31:15 AM 42.4014 -74.2003 248° West 365 420 20,000  Level Boston Center
Tue 07:32:15 AM 42.3681 -74.3228 250° West 365 420 20,000  Level Boston Center
Tue 07:33:13 AM 42.3264 -74.4481 246° West 365 420 20,000  Level Boston Center
Tue 07:34:14 AM 42.2928 -74.5733 250° West 365 420 20,000 -237 Level Boston Center
Tue 07:36:10 AM 42.1942 -74.8044 240° Southwest 342 394 19,300 -339 Descending New York Center
Tue 07:37:11 AM 42.1264 -74.9008 227° Southwest 348 400 19,000 -149 Descending New York Center
Tue 07:38:11 AM 42.0583 -75.0028 228° Southwest 363 418 19,000  Level New York Center
Tue 07:39:12 AM 41.9903 -75.0989 226° Southwest 369 425 19,000  Level New York Center
Tue 07:40:12 AM 41.9122 -75.1800 218° Southwest 358 412 19,000 -99 Level New York Center
Tue 07:41:13 AM 41.8331 -75.2417 210° Southwest 368 423 18,800 -1,017 Descending New York Center
Tue 07:42:10 AM 41.7383 -75.3186 211° Southwest 373 429 17,000 -1,795 Descending New York Center
Tue 07:43:10 AM 41.6544 -75.3878 212° Southwest 373 429 15,300 -1,700 Descending New York Center
Tue 07:44:10 AM 41.5728 -75.4517 210° Southwest 367 422 13,600 -1,636 Descending New York Center
Tue 07:45:11 AM 41.4997 -75.5103 211° Southwest 355 409 12,000 -843 Descending New York Center
Tue 07:46:11 AM 41.4203 -75.5736 211° Southwest 342 394 11,900 -50 Descending New York Center
Tue 07:47:12 AM 41.3383 -75.6369 210° Southwest 342 394 11,900  Level New York Center
Tue 07:48:12 AM 41.2425 -75.6881 202° Southwest 347 399 11,900 -600 Level New York Center
Tue 07:49:12 AM 41.1475 -75.6700 172° South 343 395 10,700 -1,017 Descending New York Center
Tue 07:50:10 AM 41.0572 -75.6386 165° South 348 400 9,900 -356 Descending New York Center
Tue 07:51:10 AM 40.9750 -75.6108 166° South 342 394 10,000 49 Climbing New York Center
Tue 07:52:12 AM 40.8844 -75.5797 165° South 342 394 10,000  Level New York Center
Tue 07:53:13 AM 40.7797 -75.5450 166° South 348 400 10,000  Level New York Center
Tue 07:54:10 AM 40.6872 -75.5111 164° South 354 407 10,000  Level New York Center
Tue 07:54:53 AM 40.6211 -75.4906 167° South 330 380 10,000  Level FAA TRACON SMA TRACON (SMA)
Tue 07:55:13 AM 40.5967 -75.4831 167° South 300 345 10,000  Level FAA TRACON SMA TRACON (SMA)
Tue 07:55:33 AM 40.5664 -75.4697 162° South 301 346 10,000  Level FAA TRACON SMA TRACON (SMA)
Tue 07:55:53 AM 40.5411 -75.4636 170° South 300 345 10,000  Level FAA TRACON SMA TRACON (SMA)
Tue 07:56:13 AM 40.5161 -75.4558 167° South 298 343 10,000  Level FAA TRACON SMA TRACON (SMA)
Tue 07:56:33 AM 40.4917 -75.4467 164° South 298 343 10,000  Level FAA TRACON SMA TRACON (SMA)
Tue 07:56:53 AM 40.4606 -75.4358 165° South 298 343 10,000  Level FAA TRACON SMA TRACON (SMA)
Tue 07:57:13 AM 40.4364 -75.4261 163° South 298 343 10,000  Level FAA TRACON SMA TRACON (SMA)
Tue 07:57:33 AM 40.4128 -75.4111 154° Southeast 300 345 10,000 -750 Level FAA TRACON SMA TRACON (SMA)
Tue 07:57:53 AM 40.3847 -75.3939 155° Southeast 297 342 9,500 -1,200 Descending FAA TRACON SMA TRACON (SMA)
Tue 07:58:13 AM 40.3631 -75.3800 154° Southeast 292 336 9,200 -900 Descending FAA TRACON SMA TRACON (SMA)
Tue 07:58:33 AM 40.3350 -75.3653 158° South 275 316 8,900 -1,050 Descending FAA TRACON SMA TRACON (SMA)
Tue 07:58:53 AM 40.3142 -75.3533 156° South 266 306 8,500 -1,350 Descending FAA TRACON SMA TRACON (SMA)
Tue 07:59:13 AM 40.2933 -75.3411 156° South 264 304 8,000 -1,500 Descending FAA TRACON SMA TRACON (SMA)
Tue 07:59:33 AM 40.2731 -75.3300 157° South 262 302 7,500 -1,500 Descending FAA TRACON SMA TRACON (SMA)
Tue 07:59:53 AM 40.2478 -75.3344 188° South 254 292 7,000 -750 Descending FAA TRACON SMA TRACON (SMA)
Tue 08:00:13 AM 40.2261 -75.3447 200° South 248 285 7,000  Level FAA TRACON SMA TRACON (SMA)
Tue 08:00:33 AM 40.2008 -75.3572 201° Southwest 251 289 7,000  Level FAA TRACON SMA TRACON (SMA)
Tue 08:00:53 AM 40.1803 -75.3681 202° Southwest 252 290 7,000  Level FAA TRACON SMA TRACON (SMA)
Tue 08:01:13 AM 40.1603 -75.3767 198° South 251 289 7,000  Level FAA TRACON SMA TRACON (SMA)
Tue 08:01:33 AM 40.1358 -75.3878 199° South 251 289 7,000 -300 Level FAA TRACON SMA TRACON (SMA)
Tue 08:01:53 AM 40.1144 -75.3983 201° Southwest 252 290 6,800 -750 Descending FAA TRACON SMA TRACON (SMA)
Tue 08:02:13 AM 40.0944 -75.4078 200° South 251 289 6,500 -1,050 Descending FAA TRACON SMA TRACON (SMA)
Tue 08:02:33 AM 40.0694 -75.4197 200° South 248 285 6,100 -750 Descending FAA TRACON SMA TRACON (SMA)
Tue 08:02:53 AM 40.0478 -75.4158 172° South 254 292 6,000 -150 Descending FAA TRACON SMA TRACON (SMA)
Tue 08:03:13 AM 40.0272 -75.4092 166° South 245 282 6,000  Level FAA TRACON SMA TRACON (SMA)
Tue 08:03:33 AM 40.0011 -75.4008 166° South 250 288 6,000  Level FAA TRACON SMA TRACON (SMA)
Tue 08:03:53 AM 39.9808 -75.3944 166° South 246 283 6,000  Level FAA TRACON SMA TRACON (SMA)
Tue 08:04:13 AM 39.9625 -75.3892 168° South 228 262 6,000  Level FAA TRACON SMA TRACON (SMA)
Tue 08:04:33 AM 39.9431 -75.3953 194° South 181 208 6,000  Level FAA TRACON SMA TRACON (SMA)
Tue 08:04:53 AM 39.9322 -75.4078 222° Southwest 160 184 6,000  Level FAA TRACON SMA TRACON (SMA)
Tue 08:05:13 AM 39.9258 -75.4244 243° Southwest 165 190 6,000 -146 Level FAA TRACON SMA TRACON (SMA)
Tue 08:05:34 AM 39.9200 -75.4472 252° West 172 198 5,900 -600 Descending FAA TRACON SMA TRACON (SMA)
Tue 08:05:53 AM 39.9161 -75.4650 254° West 170 196 5,600 -1,050 Descending FAA TRACON SMA TRACON (SMA)
Tue 08:06:14 AM 39.9119 -75.4833 254° West 170 196 5,200 -878 Descending FAA TRACON SMA TRACON (SMA)
Tue 08:06:34 AM 39.9064 -75.5058 252° West 169 194 5,000 -300 Descending FAA TRACON SMA TRACON (SMA)
Tue 08:06:54 AM 39.9022 -75.5231 253° West 169 194 5,000  Level FAA TRACON SMA TRACON (SMA)
Tue 08:07:13 AM 39.8986 -75.5422 256° West 170 196 5,000  Level FAA TRACON SMA TRACON (SMA)
Tue 08:07:34 AM 39.8936 -75.5644 254° West 170 196 5,000  Level FAA TRACON SMA TRACON (SMA)
Tue 08:07:53 AM 39.8900 -75.5836 256° West 170 196 5,000  Level FAA TRACON SMA TRACON (SMA)
Tue 08:08:13 AM 39.8861 -75.6022 255° West 171 197 5,000  Level FAA TRACON SMA TRACON (SMA)
Tue 08:08:34 AM 39.8800 -75.6242 250° West 171 197 5,000  Level FAA TRACON SMA TRACON (SMA)
Tue 08:08:53 AM 39.8669 -75.6297 198° South 177 204 5,000  Level FAA TRACON SMA TRACON (SMA)
Tue 08:09:14 AM 39.8503 -75.6225 162° South 169 194 5,000 -293 Level FAA TRACON SMA TRACON (SMA)
Tue 08:09:34 AM 39.8358 -75.6169 164° South 171 197 4,800 -900 Descending FAA TRACON SMA TRACON (SMA)
Tue 08:09:54 AM 39.8247 -75.6058 142° Southeast 177 204 4,400 -1,200 Descending FAA TRACON SMA TRACON (SMA)
Tue 08:10:14 AM 39.8211 -75.5811 101° East 180 207 4,000 -600 Descending FAA TRACON SMA TRACON (SMA)
Tue 08:10:34 AM 39.8183 -75.5597 100° East 187 215 4,000 -615 Level FAA TRACON SMA TRACON (SMA)
Tue 08:10:53 AM 39.8161 -75.5392 98° East 184 212 3,600 -1,200 Descending FAA TRACON SMA TRACON (SMA)
Tue 08:11:14 AM 39.8142 -75.5192 97° East 184 212 3,200 -878 Descending FAA TRACON SMA TRACON (SMA)
Tue 08:11:34 AM 39.8169 -75.4922 82° East 200 230 3,000 -300 Descending FAA TRACON SMA TRACON (SMA)
Tue 08:11:54 AM 39.8214 -75.4706 75° East 202 232 3,000 -300 Level FAA TRACON SMA TRACON (SMA)
Tue 08:12:14 AM 39.8258 -75.4492 75° East 195 224 2,800 -900 Descending FAA TRACON SMA TRACON (SMA)
Tue 08:12:34 AM 39.8311 -75.4236 75° East 198 228 2,400 -1,050 Descending FAA TRACON SMA TRACON (SMA)
Tue 08:12:54 AM 39.8356 -75.4011 76° East 198 228 2,100 -900 Descending FAA TRACON SMA TRACON (SMA)
Tue 08:13:14 AM 39.8397 -75.3806 75° East 195 224 1,800 -1,050 Descending FAA TRACON SMA TRACON (SMA)
Tue 08:13:34 AM 39.8450 -75.3556 75° East 187 215 1,400 -900 Descending FAA TRACON SMA TRACON (SMA)
Tue 08:13:54 AM 39.8486 -75.3367 76° East 169 194 1,200 -900 Descending FAA TRACON SMA TRACON (SMA)
Tue 08:14:14 AM 39.8522 -75.3183 76° East 140 161 800 -900 Descending FAA TRACON SMA TRACON (SMA)
Tue 08:14:34 AM 39.8550 -75.3042 76° East 130 150 600 -750 Descending FAA TRACON SMA TRACON (SMA)
Tue 08:14:54 AM 39.8581 -75.2897 75° East 130 150 300 -750 Descending FAA TRACON SMA TRACON (SMA)
Tue 08:15:14 AM 39.8600 -75.2794 76° East 131 151 100 -600 Descending FAA TRACON SMA TRACON (SMA)

Login

Don't have an account? Register now (free) for customized features, flight alerts, and more!